Map

Track Data

SID SEASON NUMBER BASIN SUBBASIN NAME ISO_TIME NATURE LAT LON WMO_WIND WMO_PRES WMO_AGENCY TRACK_TYPE DIST2LAND LANDFALL IFLAG USA_AGENCY USA_ATCF_ID USA_LAT USA_LON USA_RECORD USA_STATUS USA_WIND USA_PRES USA_SSHS USA_R34_NE USA_R34_SE USA_R34_SW USA_R34_NW USA_R50_NE USA_R50_SE USA_R50_SW USA_R50_NW USA_R64_NE USA_R64_SE USA_R64_SW USA_R64_NW USA_POCI USA_ROCI USA_RMW USA_EYE TOKYO_LAT TOKYO_LON TOKYO_GRADE TOKYO_WIND TOKYO_PRES TOKYO_R50_DIR TOKYO_R50_LONG TOKYO_R50_SHORT TOKYO_R30_DIR TOKYO_R30_LONG TOKYO_R30_SHORT TOKYO_LAND CMA_LAT CMA_LON CMA_CAT CMA_WIND CMA_PRES HKO_LAT HKO_LON HKO_CAT HKO_WIND HKO_PRES NEWDELHI_LAT NEWDELHI_LON NEWDELHI_GRADE NEWDELHI_WIND NEWDELHI_PRES NEWDELHI_CI NEWDELHI_DP NEWDELHI_POCI REUNION_LAT REUNION_LON REUNION_TYPE REUNION_WIND REUNION_PRES REUNION_TNUM REUNION_CI REUNION_RMW REUNION_R34_NE REUNION_R34_SE REUNION_R34_SW REUNION_R34_NW REUNION_R50_NE REUNION_R50_SE REUNION_R50_SW REUNION_R50_NW REUNION_R64_NE REUNION_R64_SE REUNION_R64_SW REUNION_R64_NW BOM_LAT BOM_LON BOM_TYPE BOM_WIND BOM_PRES BOM_TNUM BOM_CI BOM_RMW BOM_R34_NE BOM_R34_SE BOM_R34_SW BOM_R34_NW BOM_R50_NE BOM_R50_SE BOM_R50_SW BOM_R50_NW BOM_R64_NE BOM_R64_SE BOM_R64_SW BOM_R64_NW BOM_ROCI BOM_POCI BOM_EYE BOM_POS_METHOD BOM_PRES_METHOD NADI_LAT NADI_LON NADI_CAT NADI_WIND NADI_PRES WELLINGTON_LAT WELLINGTON_LON WELLINGTON_WIND WELLINGTON_PRES DS824_LAT DS824_LON DS824_STAGE DS824_WIND DS824_PRES TD9636_LAT TD9636_LON TD9636_STAGE TD9636_WIND TD9636_PRES TD9635_LAT TD9635_LON TD9635_WIND TD9635_PRES TD9635_ROCI NEUMANN_LAT NEUMANN_LON NEUMANN_CLASS NEUMANN_WIND NEUMANN_PRES MLC_LAT MLC_LON MLC_CLASS MLC_WIND MLC_PRES USA_GUST BOM_GUST BOM_GUST_PER REUNION_GUST REUNION_GUST_PER USA_SEAHGT USA_SEARAD_NE USA_SEARAD_SE USA_SEARAD_SW USA_SEARAD_NW STORM_SPEED STORM_DIR
1884242N29294 1884 27 NA NA NOT_NAMED 1884-08-28 12:00:00 TS 28.5000 -66.0000 main 1073 1073 _____________O -1 28.5000 -66.0000 TD 30 4 40
1884242N29294 1884 27 NA NA NOT_NAMED 1884-08-28 15:00:00 TS 28.6625 -65.8451 main 1102 1102 _____________P -1 28.6625 -65.8451 TD 30 4 41
1884242N29294 1884 27 NA NA NOT_NAMED 1884-08-28 18:00:00 TS 28.8000 -65.7000 main 1116 1116 _____________O -1 28.8000 -65.7000 TD 30 3 45
1884242N29294 1884 27 NA NA NOT_NAMED 1884-08-28 21:00:00 TS 28.9000 -65.5775 main 1130 1130 _____________P -1 28.9000 -65.5775 TD 30 3 42
1884242N29294 1884 27 NA NA NOT_NAMED 1884-08-29 00:00:00 TS 29.0000 -65.5000 main 1144 1144 _____________O -1 29.0000 -65.5000 TD 30 3 21
1884242N29294 1884 27 NA NA NOT_NAMED 1884-08-29 03:00:00 TS 29.1425 -65.4775 main 1154 1154 _____________P -1 29.1425 -65.4775 TD 30 3 0
1884242N29294 1884 27 NA NA NOT_NAMED 1884-08-29 06:00:00 TS 29.3000 -65.5000 main 1175 1175 _____________O -1 29.3000 -65.5000 TD 30 3 351
1884242N29294 1884 27 NA NA NOT_NAMED 1884-08-29 09:00:00 TS 29.4500 -65.5350 main 1175 1153 _____________P -1 29.4500 -65.5350 TD 32 3 344
1884242N29294 1884 27 NA NA NOT_NAMED 1884-08-29 12:00:00 TS 29.6000 -65.6000 main 1153 1138 _____________O -1 29.6000 -65.6000 TS 35 3 335
1884242N29294 1884 27 NA NA NOT_NAMED 1884-08-29 15:00:00 TS 29.7425 -65.6925 main 1138 1117 _____________P -1 29.7425 -65.6925 TS 35 3 330
1884242N29294 1884 27 NA NA NOT_NAMED 1884-08-29 18:00:00 TS 29.9000 -65.8000 main 1117 1096 _____________O -1 29.9000 -65.8000 TS 35 4 334
1884242N29294 1884 27 NA NA NOT_NAMED 1884-08-29 21:00:00 TS 30.0925 -65.8926 main 1096 1074 _____________P -1 30.0925 -65.8926 TS 37 4 337
1884242N29294 1884 27 NA NA NOT_NAMED 1884-08-30 00:00:00 TS 30.3000 -66.0000 main 1074 1053 _____________O -1 30.3000 -66.0000 TS 40 5 332
1884242N29294 1884 27 NA NA NOT_NAMED 1884-08-30 03:00:00 TS 30.5075 -66.1499 main 1053 1025 _____________P -1 30.5075 -66.1499 TS 40 5 327
1884242N29294 1884 27 NA NA NOT_NAMED 1884-08-30 06:00:00 TS 30.7000 -66.3000 main 1025 1010 _____________O -1 30.7000 -66.3000 TS 40 4 321
1884242N29294 1884 27 NA NA NOT_NAMED 1884-08-30 09:00:00 TS 30.7825 -66.4078 main 1010 990 _____________P -1 30.7825 -66.4078 TS 42 3 330
1884242N29294 1884 27 NA NA NOT_NAMED 1884-08-30 12:00:00 TS 31.0000 -66.5000 main 990 951 _____________O -1 31.0000 -66.5000 TS 45 8 348
1884242N29294 1884 27 NA NA NOT_NAMED 1884-08-30 15:00:00 TS 31.5825 -66.5999 main 945 897 _____________P -1 31.5825 -66.5999 TS 45 13 352
1884242N29294 1884 27 NA NA NOT_NAMED 1884-08-30 18:00:00 TS 32.3000 -66.7000 main 897 859 _____________O -1 32.3000 -66.7000 TS 45 13 352
1884242N29294 1884 27 NA NA NOT_NAMED 1884-08-30 21:00:00 TS 32.9000 -66.8075 main 859 825 _____________P -1 32.9000 -66.8075 TS 45 12 352
1884242N29294 1884 27 NA NA NOT_NAMED 1884-08-31 00:00:00 TS 33.5000 -66.9000 main 825 795 _____________O -1 33.5000 -66.9000 TS 45 13 354
1884242N29294 1884 27 NA NA NOT_NAMED 1884-08-31 03:00:00 TS 34.1500 -66.9650 main 795 777 _____________P -1 34.1500 -66.9650 TS 47 13 356
1884242N29294 1884 27 NA NA NOT_NAMED 1884-08-31 06:00:00 TS 34.8000 -67.0000 main 777 758 _____________O -1 34.8000 -67.0000 TS 50 12 357
1884242N29294 1884 27 NA NA NOT_NAMED 1884-08-31 09:00:00 TS 35.3774 -67.0441 main 747 685 _____________P -1 35.3774 -67.0441 TS 50 12 1
1884242N29294 1884 27 NA NA NOT_NAMED 1884-08-31 12:00:00 TS 36.0000 -67.0000 main 685 620 _____________O -1 36.0000 -67.0000 TS 50 14 8
1884242N29294 1884 27 NA NA NOT_NAMED 1884-08-31 15:00:00 TS 36.7774 -66.8101 main 610 545 _____________P -1 36.7774 -66.8101 TS 52 17 14
1884242N29294 1884 27 NA NA NOT_NAMED 1884-08-31 18:00:00 TS 37.6000 -66.5000 main 545 497 _____________O -1 37.6000 -66.5000 TS 55 17 18
1884242N29294 1884 27 NA NA NOT_NAMED 1884-08-31 21:00:00 TS 38.3494 -66.1729 main 497 464 _____________P -1 38.3494 -66.1729 TS 55 16 23
1884242N29294 1884 27 NA NA NOT_NAMED 1884-09-01 00:00:00 TS 39.1000 -65.7000 main 464 411 _____________O -1 39.1000 -65.7000 TS 55 17 26
1884242N29294 1884 27 NA NA NOT_NAMED 1884-09-01 03:00:00 TS 39.8941 -65.1980 main 400 322 _____________P -1 39.8941 -65.1980 TS 55 20 36
1884242N29294 1884 27 NA NA NOT_NAMED 1884-09-01 06:00:00 TS 40.7000 -64.2000 main 324 313 _____________O -1 40.7000 -64.2000 TS 55 28 57
1884242N29294 1884 27 NA NA NOT_NAMED 1884-09-01 09:00:00 TS 41.4166 -62.1628 main 340 340 _____________P -1 41.4166 -62.1628 TS 55 35 65
1884242N29294 1884 27 NA NA NOT_NAMED 1884-09-01 12:00:00 TS 42.2000 -60.0000 main 344 298 _____________O -1 42.2000 -60.0000 TS 55 998 32 56
1884242N29294 1884 27 NA NA NOT_NAMED 1884-09-01 15:00:00 TS 43.2510 -58.5526 main 289 245 _____________P -1 43.2510 -58.5526 TS 55 28 37
1884242N29294 1884 27 NA NA NOT_NAMED 1884-09-01 18:00:00 TS 44.4000 -57.7000 main 243 203 _____________O -1 44.4000 -57.7000 TS 55 23 20
1884242N29294 1884 27 NA NA NOT_NAMED 1884-09-01 21:00:00 TS 45.4404 -57.4333 main 203 130 _____________P -1 45.4404 -57.4333 TS 55 21 4
1884242N29294 1884 27 NA NA NOT_NAMED 1884-09-02 00:00:00 ET 46.5000 -57.5000 main 119 0 _____________O -1 46.5000 -57.5000 EX 55 22 357
1884242N29294 1884 27 NA NA NOT_NAMED 1884-09-02 03:00:00 ET 47.6388 -57.6167 main 0 0 _____________P -1 47.6388 -57.6167 EX 55 23 3
1884242N29294 1884 27 NA NA NOT_NAMED 1884-09-02 06:00:00 ET 48.8000 -57.3000 main 0 0 _____________O -1 48.8000 -57.3000 EX 55 25 25
1884242N29294 1884 27 NA NA NOT_NAMED 1884-09-02 09:00:00 ET 49.9259 -55.9889 main 0 0 _____________P -1 49.9259 -55.9889 EX 55 31 44
1884242N29294 1884 27 NA NA NOT_NAMED 1884-09-02 12:00:00 ET 51.0000 -54.0000 main 113 _____________O -1 51.0000 -54.0000 EX 55 33 49

About IBTrACS Database

This database is a web-friendly format of International Best Track Archive for Climate Stewardship (IBTrACS), a global best track data archive curated by NOAA dating back to 1842.

Updated: 2021-11-26